sensor_id;sensor_type;location;lat;lon;timestamp;P1;durP1;ratioP1;P2;durP2;ratioP2
68763;SDS011;55754;52.038;5.566;2022-10-31T00:02:11;16.60;;;7.97;;
68763;SDS011;55754;52.038;5.566;2022-10-31T00:04:36;17.23;;;8.00;;
68763;SDS011;55754;52.038;5.566;2022-10-31T00:07:02;17.73;;;8.97;;
68763;SDS011;55754;52.038;5.566;2022-10-31T00:09:27;20.93;;;8.80;;
68763;SDS011;55754;52.038;5.566;2022-10-31T00:11:53;20.05;;;9.35;;
68763;SDS011;55754;52.038;5.566;2022-10-31T00:14:18;20.60;;;8.73;;
68763;SDS011;55754;52.038;5.566;2022-10-31T00:16:44;17.47;;;8.90;;
68763;SDS011;55754;52.038;5.566;2022-10-31T00:19:09;21.48;;;9.23;;
68763;SDS011;55754;52.038;5.566;2022-10-31T00:21:44;16.83;;;8.55;;
68763;SDS011;55754;52.038;5.566;2022-10-31T00:24:13;17.97;;;8.67;;
68763;SDS011;55754;52.038;5.566;2022-10-31T00:26:38;17.35;;;8.23;;
68763;SDS011;55754;52.038;5.566;2022-10-31T00:29:07;20.15;;;8.88;;
68763;SDS011;55754;52.038;5.566;2022-10-31T00:31:32;21.03;;;8.53;;
68763;SDS011;55754;52.038;5.566;2022-10-31T00:33:58;16.43;;;8.33;;
68763;SDS011;55754;52.038;5.566;2022-10-31T00:36:23;17.15;;;7.70;;
68763;SDS011;55754;52.038;5.566;2022-10-31T00:38:49;17.67;;;7.70;;
68763;SDS011;55754;52.038;5.566;2022-10-31T00:41:16;18.37;;;7.17;;
68763;SDS011;55754;52.038;5.566;2022-10-31T00:43:45;15.27;;;6.63;;
68763;SDS011;55754;52.038;5.566;2022-10-31T00:46:11;14.70;;;5.93;;
68763;SDS011;55754;52.038;5.566;2022-10-31T00:48:37;12.30;;;6.00;;
68763;SDS011;55754;52.038;5.566;2022-10-31T00:51:03;19.10;;;5.70;;
68763;SDS011;55754;52.038;5.566;2022-10-31T00:53:28;15.55;;;6.22;;
68763;SDS011;55754;52.038;5.566;2022-10-31T00:55:54;11.97;;;5.43;;
68763;SDS011;55754;52.038;5.566;2022-10-31T00:58:19;12.83;;;5.30;;
68763;SDS011;55754;52.038;5.566;2022-10-31T01:00:46;15.65;;;5.97;;
68763;SDS011;55754;52.038;5.566;2022-10-31T01:03:19;14.20;;;5.47;;
68763;SDS011;55754;52.038;5.566;2022-10-31T01:06:01;13.13;;;5.32;;
68763;SDS011;55754;52.038;5.566;2022-10-31T01:08:31;13.25;;;5.85;;
68763;SDS011;55754;52.038;5.566;2022-10-31T01:11:06;12.30;;;5.22;;
68763;SDS011;55754;52.038;5.566;2022-10-31T01:13:37;17.92;;;5.07;;
68763;SDS011;55754;52.038;5.566;2022-10-31T01:16:04;12.50;;;5.37;;
68763;SDS011;55754;52.038;5.566;2022-10-31T01:18:31;11.70;;;5.28;;
68763;SDS011;55754;52.038;5.566;2022-10-31T01:20:58;12.35;;;5.38;;
68763;SDS011;55754;52.038;5.566;2022-10-31T01:23:53;16.40;;;5.80;;
68763;SDS011;55754;52.038;5.566;2022-10-31T01:26:22;11.60;;;5.30;;
68763;SDS011;55754;52.038;5.566;2022-10-31T01:28:54;13.43;;;5.38;;
68763;SDS011;55754;52.038;5.566;2022-10-31T01:31:22;11.93;;;5.40;;
68763;SDS011;55754;52.038;5.566;2022-10-31T01:33:50;14.20;;;5.72;;
68763;SDS011;55754;52.038;5.566;2022-10-31T01:36:20;12.17;;;5.77;;
68763;SDS011;55754;52.038;5.566;2022-10-31T01:38:51;16.15;;;7.43;;
68763;SDS011;55754;52.038;5.566;2022-10-31T01:41:18;15.00;;;7.47;;
68763;SDS011;55754;52.038;5.566;2022-10-31T01:46:25;15.60;;;8.00;;
68763;SDS011;55754;52.038;5.566;2022-10-31T01:48:55;20.27;;;8.50;;
68763;SDS011;55754;52.038;5.566;2022-10-31T01:51:28;13.85;;;7.78;;
68763;SDS011;55754;52.038;5.566;2022-10-31T01:53:58;15.90;;;8.32;;
68763;SDS011;55754;52.038;5.566;2022-10-31T01:56:37;16.30;;;8.48;;
68763;SDS011;55754;52.038;5.566;2022-10-31T01:59:08;19.03;;;8.67;;
68763;SDS011;55754;52.038;5.566;2022-10-31T02:01:37;16.50;;;8.30;;
68763;SDS011;55754;52.038;5.566;2022-10-31T02:04:03;17.15;;;8.63;;
68763;SDS011;55754;52.038;5.566;2022-10-31T02:09:14;18.17;;;9.10;;
68763;SDS011;55754;52.038;5.566;2022-10-31T02:11:41;17.42;;;9.20;;
68763;SDS011;55754;52.038;5.566;2022-10-31T02:14:09;20.17;;;8.73;;
68763;SDS011;55754;52.038;5.566;2022-10-31T02:16:35;20.35;;;9.13;;
68763;SDS011;55754;52.038;5.566;2022-10-31T02:19:00;17.47;;;8.90;;
68763;SDS011;55754;52.038;5.566;2022-10-31T02:21:31;20.45;;;9.20;;
68763;SDS011;55754;52.038;5.566;2022-10-31T02:24:15;20.20;;;9.25;;
68763;SDS011;55754;52.038;5.566;2022-10-31T02:26:59;18.63;;;8.97;;
68763;SDS011;55754;52.038;5.566;2022-10-31T02:40:26;16.67;;;9.90;;
68763;SDS011;55754;52.038;5.566;2022-10-31T02:45:39;18.70;;;9.20;;
68763;SDS011;55754;52.038;5.566;2022-10-31T02:48:13;19.52;;;9.98;;
68763;SDS011;55754;52.038;5.566;2022-10-31T02:50:45;18.88;;;9.70;;
68763;SDS011;55754;52.038;5.566;2022-10-31T02:53:24;17.37;;;10.20;;
68763;SDS011;55754;52.038;5.566;2022-10-31T02:58:21;19.23;;;9.45;;
68763;SDS011;55754;52.038;5.566;2022-10-31T03:00:57;19.85;;;9.43;;
68763;SDS011;55754;52.038;5.566;2022-10-31T03:03:34;17.87;;;9.07;;
68763;SDS011;55754;52.038;5.566;2022-10-31T03:08:50;19.40;;;9.57;;
68763;SDS011;55754;52.038;5.566;2022-10-31T03:11:22;17.10;;;9.30;;
68763;SDS011;55754;52.038;5.566;2022-10-31T03:13:52;16.90;;;9.25;;
68763;SDS011;55754;52.038;5.566;2022-10-31T03:16:38;21.10;;;9.13;;
68763;SDS011;55754;52.038;5.566;2022-10-31T03:19:12;18.17;;;9.32;;
68763;SDS011;55754;52.038;5.566;2022-10-31T03:21:49;19.23;;;9.95;;
68763;SDS011;55754;52.038;5.566;2022-10-31T03:24:43;20.23;;;9.75;;
68763;SDS011;55754;52.038;5.566;2022-10-31T03:27:14;19.00;;;9.63;;
68763;SDS011;55754;52.038;5.566;2022-10-31T03:29:43;16.53;;;9.70;;
68763;SDS011;55754;52.038;5.566;2022-10-31T03:32:12;18.20;;;9.98;;
68763;SDS011;55754;52.038;5.566;2022-10-31T03:34:42;24.13;;;10.65;;
68763;SDS011;55754;52.038;5.566;2022-10-31T03:37:10;17.08;;;9.48;;
68763;SDS011;55754;52.038;5.566;2022-10-31T03:39:38;19.15;;;9.60;;
68763;SDS011;55754;52.038;5.566;2022-10-31T03:42:08;22.33;;;9.53;;
68763;SDS011;55754;52.038;5.566;2022-10-31T03:44:50;17.48;;;9.88;;
68763;SDS011;55754;52.038;5.566;2022-10-31T03:47:22;20.10;;;9.93;;
68763;SDS011;55754;52.038;5.566;2022-10-31T03:49:47;18.92;;;9.32;;
68763;SDS011;55754;52.038;5.566;2022-10-31T03:52:27;19.40;;;9.18;;
68763;SDS011;55754;52.038;5.566;2022-10-31T03:54:59;18.50;;;9.20;;
68763;SDS011;55754;52.038;5.566;2022-10-31T03:58:36;15.13;;;9.10;;
68763;SDS011;55754;52.038;5.566;2022-10-31T04:01:09;19.08;;;10.15;;
68763;SDS011;55754;52.038;5.566;2022-10-31T04:03:39;17.85;;;10.38;;
68763;SDS011;55754;52.038;5.566;2022-10-31T04:06:08;22.10;;;10.25;;
68763;SDS011;55754;52.038;5.566;2022-10-31T04:08:48;18.13;;;10.00;;
68763;SDS011;55754;52.038;5.566;2022-10-31T04:11:18;18.13;;;9.50;;
68763;SDS011;55754;52.038;5.566;2022-10-31T04:13:49;21.17;;;9.55;;
68763;SDS011;55754;52.038;5.566;2022-10-31T04:16:16;18.88;;;9.32;;
68763;SDS011;55754;52.038;5.566;2022-10-31T04:18:42;21.35;;;9.60;;
68763;SDS011;55754;52.038;5.566;2022-10-31T04:21:08;16.70;;;9.43;;
68763;SDS011;55754;52.038;5.566;2022-10-31T04:23:34;22.50;;;9.73;;
68763;SDS011;55754;52.038;5.566;2022-10-31T04:26:01;15.40;;;8.70;;
68763;SDS011;55754;52.038;5.566;2022-10-31T04:28:27;20.15;;;9.18;;
68763;SDS011;55754;52.038;5.566;2022-10-31T04:30:52;20.05;;;9.75;;
68763;SDS011;55754;52.038;5.566;2022-10-31T04:33:18;21.07;;;9.47;;
68763;SDS011;55754;52.038;5.566;2022-10-31T04:35:45;22.70;;;9.27;;
68763;SDS011;55754;52.038;5.566;2022-10-31T04:38:10;17.08;;;8.93;;
68763;SDS011;55754;52.038;5.566;2022-10-31T04:40:36;15.87;;;9.20;;
68763;SDS011;55754;52.038;5.566;2022-10-31T04:43:01;16.08;;;8.55;;
68763;SDS011;55754;52.038;5.566;2022-10-31T04:45:27;16.37;;;8.73;;
68763;SDS011;55754;52.038;5.566;2022-10-31T04:47:52;21.83;;;9.02;;
68763;SDS011;55754;52.038;5.566;2022-10-31T04:50:18;16.50;;;8.70;;
68763;SDS011;55754;52.038;5.566;2022-10-31T04:52:44;16.33;;;8.47;;
68763;SDS011;55754;52.038;5.566;2022-10-31T04:55:11;14.93;;;8.68;;
68763;SDS011;55754;52.038;5.566;2022-10-31T04:57:41;16.05;;;9.45;;
68763;SDS011;55754;52.038;5.566;2022-10-31T05:00:08;15.48;;;8.82;;
68763;SDS011;55754;52.038;5.566;2022-10-31T05:02:34;20.20;;;9.80;;
68763;SDS011;55754;52.038;5.566;2022-10-31T05:05:11;16.07;;;8.97;;
68763;SDS011;55754;52.038;5.566;2022-10-31T05:07:41;18.90;;;9.05;;
68763;SDS011;55754;52.038;5.566;2022-10-31T05:10:08;19.58;;;9.77;;
68763;SDS011;55754;52.038;5.566;2022-10-31T05:12:49;16.05;;;8.85;;
68763;SDS011;55754;52.038;5.566;2022-10-31T05:15:22;16.30;;;9.07;;
68763;SDS011;55754;52.038;5.566;2022-10-31T05:17:50;18.33;;;8.87;;
68763;SDS011;55754;52.038;5.566;2022-10-31T05:20:17;27.30;;;9.27;;
68763;SDS011;55754;52.038;5.566;2022-10-31T05:22:44;32.20;;;10.05;;
68763;SDS011;55754;52.038;5.566;2022-10-31T05:25:11;22.15;;;9.50;;
68763;SDS011;55754;52.038;5.566;2022-10-31T05:27:41;65.40;;;10.32;;
68763;SDS011;55754;52.038;5.566;2022-10-31T05:30:09;24.93;;;9.30;;
68763;SDS011;55754;52.038;5.566;2022-10-31T05:35:08;25.38;;;9.27;;
68763;SDS011;55754;52.038;5.566;2022-10-31T05:37:36;56.20;;;9.75;;
68763;SDS011;55754;52.038;5.566;2022-10-31T05:40:03;64.38;;;10.55;;
68763;SDS011;55754;52.038;5.566;2022-10-31T05:42:31;92.83;;;10.30;;
68763;SDS011;55754;52.038;5.566;2022-10-31T05:44:56;146.18;;;11.15;;
68763;SDS011;55754;52.038;5.566;2022-10-31T05:47:22;97.10;;;11.40;;
68763;SDS011;55754;52.038;5.566;2022-10-31T05:49:48;114.03;;;10.77;;
68763;SDS011;55754;52.038;5.566;2022-10-31T05:52:14;127.23;;;10.83;;
68763;SDS011;55754;52.038;5.566;2022-10-31T05:54:39;78.03;;;10.13;;
68763;SDS011;55754;52.038;5.566;2022-10-31T05:57:05;43.27;;;9.83;;
68763;SDS011;55754;52.038;5.566;2022-10-31T05:59:31;121.07;;;10.43;;
68763;SDS011;55754;52.038;5.566;2022-10-31T06:01:56;103.67;;;10.40;;
68763;SDS011;55754;52.038;5.566;2022-10-31T06:04:22;143.80;;;9.73;;
68763;SDS011;55754;52.038;5.566;2022-10-31T06:06:47;120.10;;;9.48;;
68763;SDS011;55754;52.038;5.566;2022-10-31T06:09:15;206.50;;;10.93;;
68763;SDS011;55754;52.038;5.566;2022-10-31T06:11:41;233.77;;;11.05;;
68763;SDS011;55754;52.038;5.566;2022-10-31T06:14:06;150.03;;;11.57;;
68763;SDS011;55754;52.038;5.566;2022-10-31T06:16:32;237.48;;;11.32;;
68763;SDS011;55754;52.038;5.566;2022-10-31T06:18:58;167.07;;;10.17;;
68763;SDS011;55754;52.038;5.566;2022-10-31T06:21:24;153.90;;;11.05;;
68763;SDS011;55754;52.038;5.566;2022-10-31T06:23:49;117.57;;;10.20;;
68763;SDS011;55754;52.038;5.566;2022-10-31T06:26:15;242.55;;;11.77;;
68763;SDS011;55754;52.038;5.566;2022-10-31T06:28:40;89.73;;;10.10;;
68763;SDS011;55754;52.038;5.566;2022-10-31T06:31:06;143.38;;;10.93;;
68763;SDS011;55754;52.038;5.566;2022-10-31T06:33:32;133.73;;;10.67;;
68763;SDS011;55754;52.038;5.566;2022-10-31T06:35:59;104.22;;;10.60;;
68763;SDS011;55754;52.038;5.566;2022-10-31T06:38:25;117.30;;;10.17;;
68763;SDS011;55754;52.038;5.566;2022-10-31T06:40:52;60.17;;;10.15;;
68763;SDS011;55754;52.038;5.566;2022-10-31T06:43:18;36.75;;;9.68;;
68763;SDS011;55754;52.038;5.566;2022-10-31T06:45:44;34.45;;;10.10;;
68763;SDS011;55754;52.038;5.566;2022-10-31T06:48:09;90.77;;;12.00;;
68763;SDS011;55754;52.038;5.566;2022-10-31T06:50:35;72.30;;;10.97;;
68763;SDS011;55754;52.038;5.566;2022-10-31T06:53:00;66.50;;;11.18;;
68763;SDS011;55754;52.038;5.566;2022-10-31T06:55:26;54.35;;;11.27;;
68763;SDS011;55754;52.038;5.566;2022-10-31T06:57:52;47.53;;;11.23;;
68763;SDS011;55754;52.038;5.566;2022-10-31T07:00:19;48.88;;;11.00;;
68763;SDS011;55754;52.038;5.566;2022-10-31T07:03:00;53.63;;;10.82;;
68763;SDS011;55754;52.038;5.566;2022-10-31T07:05:33;51.50;;;12.33;;
68763;SDS011;55754;52.038;5.566;2022-10-31T07:07:59;69.70;;;11.07;;
68763;SDS011;55754;52.038;5.566;2022-10-31T07:10:26;51.85;;;11.30;;
68763;SDS011;55754;52.038;5.566;2022-10-31T07:12:54;40.70;;;10.73;;
68763;SDS011;55754;52.038;5.566;2022-10-31T07:15:24;53.15;;;10.13;;
68763;SDS011;55754;52.038;5.566;2022-10-31T07:17:51;29.47;;;9.57;;
68763;SDS011;55754;52.038;5.566;2022-10-31T07:20:16;32.38;;;10.35;;
68763;SDS011;55754;52.038;5.566;2022-10-31T07:22:42;45.80;;;9.43;;
68763;SDS011;55754;52.038;5.566;2022-10-31T07:25:08;22.85;;;9.80;;
68763;SDS011;55754;52.038;5.566;2022-10-31T07:27:37;34.00;;;9.43;;
68763;SDS011;55754;52.038;5.566;2022-10-31T07:30:04;17.80;;;9.40;;
68763;SDS011;55754;52.038;5.566;2022-10-31T07:32:37;15.52;;;9.07;;
68763;SDS011;55754;52.038;5.566;2022-10-31T07:35:03;15.93;;;9.38;;
68763;SDS011;55754;52.038;5.566;2022-10-31T07:37:29;16.55;;;9.35;;
68763;SDS011;55754;52.038;5.566;2022-10-31T07:39:55;18.33;;;9.90;;
68763;SDS011;55754;52.038;5.566;2022-10-31T07:42:20;19.30;;;10.87;;
68763;SDS011;55754;52.038;5.566;2022-10-31T07:44:46;19.88;;;11.30;;
68763;SDS011;55754;52.038;5.566;2022-10-31T07:47:11;20.80;;;10.67;;
68763;SDS011;55754;52.038;5.566;2022-10-31T07:49:37;23.63;;;11.60;;
68763;SDS011;55754;52.038;5.566;2022-10-31T07:52:05;22.70;;;11.90;;
68763;SDS011;55754;52.038;5.566;2022-10-31T07:54:31;24.10;;;12.20;;
68763;SDS011;55754;52.038;5.566;2022-10-31T07:56:56;25.98;;;12.90;;
68763;SDS011;55754;52.038;5.566;2022-10-31T08:01:59;25.52;;;13.00;;
68763;SDS011;55754;52.038;5.566;2022-10-31T08:04:25;22.57;;;13.00;;
68763;SDS011;55754;52.038;5.566;2022-10-31T08:06:50;23.23;;;12.83;;
68763;SDS011;55754;52.038;5.566;2022-10-31T08:09:16;26.27;;;13.25;;
68763;SDS011;55754;52.038;5.566;2022-10-31T08:11:41;26.20;;;13.00;;
68763;SDS011;55754;52.038;5.566;2022-10-31T08:14:07;23.67;;;13.27;;
68763;SDS011;55754;52.038;5.566;2022-10-31T08:16:32;24.17;;;13.55;;
68763;SDS011;55754;52.038;5.566;2022-10-31T08:18:58;24.77;;;12.87;;
68763;SDS011;55754;52.038;5.566;2022-10-31T08:21:23;23.23;;;13.47;;
68763;SDS011;55754;52.038;5.566;2022-10-31T08:23:49;26.05;;;14.35;;
68763;SDS011;55754;52.038;5.566;2022-10-31T08:26:14;24.37;;;14.77;;
68763;SDS011;55754;52.038;5.566;2022-10-31T08:28:40;24.43;;;14.00;;
68763;SDS011;55754;52.038;5.566;2022-10-31T08:31:06;27.10;;;15.10;;
68763;SDS011;55754;52.038;5.566;2022-10-31T08:33:31;27.13;;;15.03;;
68763;SDS011;55754;52.038;5.566;2022-10-31T08:35:59;26.07;;;16.07;;
68763;SDS011;55754;52.038;5.566;2022-10-31T08:38:25;33.67;;;15.95;;
68763;SDS011;55754;52.038;5.566;2022-10-31T08:40:50;27.23;;;14.73;;
68763;SDS011;55754;52.038;5.566;2022-10-31T08:43:17;29.45;;;16.13;;
68763;SDS011;55754;52.038;5.566;2022-10-31T08:45:44;27.40;;;16.20;;
68763;SDS011;55754;52.038;5.566;2022-10-31T08:48:13;24.90;;;14.90;;
68763;SDS011;55754;52.038;5.566;2022-10-31T08:50:40;25.02;;;15.07;;
68763;SDS011;55754;52.038;5.566;2022-10-31T08:53:07;26.75;;;16.10;;
68763;SDS011;55754;52.038;5.566;2022-10-31T08:55:37;27.67;;;14.70;;
68763;SDS011;55754;52.038;5.566;2022-10-31T08:58:04;25.77;;;15.70;;
68763;SDS011;55754;52.038;5.566;2022-10-31T09:00:32;26.83;;;14.70;;
68763;SDS011;55754;52.038;5.566;2022-10-31T09:03:00;27.70;;;15.48;;
68763;SDS011;55754;52.038;5.566;2022-10-31T09:05:27;28.80;;;15.02;;
68763;SDS011;55754;52.038;5.566;2022-10-31T09:08:00;25.40;;;14.80;;
68763;SDS011;55754;52.038;5.566;2022-10-31T09:10:27;21.60;;;13.68;;
68763;SDS011;55754;52.038;5.566;2022-10-31T09:12:57;24.80;;;14.30;;
68763;SDS011;55754;52.038;5.566;2022-10-31T09:15:24;26.30;;;14.05;;
68763;SDS011;55754;52.038;5.566;2022-10-31T09:17:50;24.97;;;14.17;;
68763;SDS011;55754;52.038;5.566;2022-10-31T09:20:15;27.25;;;13.35;;
68763;SDS011;55754;52.038;5.566;2022-10-31T09:22:41;21.63;;;13.53;;
68763;SDS011;55754;52.038;5.566;2022-10-31T09:25:07;26.80;;;13.35;;
68763;SDS011;55754;52.038;5.566;2022-10-31T09:27:33;22.80;;;13.03;;
68763;SDS011;55754;52.038;5.566;2022-10-31T09:29:58;27.52;;;13.40;;
68763;SDS011;55754;52.038;5.566;2022-10-31T09:32:24;22.43;;;13.20;;
68763;SDS011;55754;52.038;5.566;2022-10-31T09:34:49;23.23;;;12.27;;
68763;SDS011;55754;52.038;5.566;2022-10-31T09:37:15;20.35;;;12.48;;
68763;SDS011;55754;52.038;5.566;2022-10-31T09:39:40;21.63;;;12.77;;
68763;SDS011;55754;52.038;5.566;2022-10-31T09:50:09;19.00;;;10.40;;
68763;SDS011;55754;52.038;5.566;2022-10-31T09:52:51;21.45;;;10.18;;
68763;SDS011;55754;52.038;5.566;2022-10-31T09:58:23;13.02;;;7.22;;
68763;SDS011;55754;52.038;5.566;2022-10-31T10:00:51;13.48;;;7.50;;
68763;SDS011;55754;52.038;5.566;2022-10-31T10:03:30;15.37;;;7.67;;
68763;SDS011;55754;52.038;5.566;2022-10-31T10:06:09;13.35;;;7.38;;
68763;SDS011;55754;52.038;5.566;2022-10-31T10:08:41;15.10;;;8.18;;
68763;SDS011;55754;52.038;5.566;2022-10-31T10:14:25;15.20;;;8.02;;
68763;SDS011;55754;52.038;5.566;2022-10-31T10:17:06;15.95;;;8.25;;
68763;SDS011;55754;52.038;5.566;2022-10-31T10:22:26;14.05;;;8.20;;
68763;SDS011;55754;52.038;5.566;2022-10-31T10:30:58;16.38;;;9.25;;
68763;SDS011;55754;52.038;5.566;2022-10-31T10:33:53;18.70;;;9.73;;
68763;SDS011;55754;52.038;5.566;2022-10-31T10:41:49;18.42;;;9.82;;
68763;SDS011;55754;52.038;5.566;2022-10-31T10:44:38;21.50;;;10.43;;
68763;SDS011;55754;52.038;5.566;2022-10-31T10:47:26;18.35;;;9.88;;
68763;SDS011;55754;52.038;5.566;2022-10-31T10:50:20;22.30;;;10.30;;
68763;SDS011;55754;52.038;5.566;2022-10-31T10:55:56;25.50;;;11.75;;
68763;SDS011;55754;52.038;5.566;2022-10-31T10:58:29;24.20;;;11.95;;
68763;SDS011;55754;52.038;5.566;2022-10-31T11:00:55;25.00;;;11.53;;
68763;SDS011;55754;52.038;5.566;2022-10-31T11:03:21;23.95;;;12.32;;
68763;SDS011;55754;52.038;5.566;2022-10-31T11:05:48;28.98;;;13.00;;
68763;SDS011;55754;52.038;5.566;2022-10-31T11:08:27;30.05;;;14.10;;
68763;SDS011;55754;52.038;5.566;2022-10-31T11:13:28;23.53;;;11.90;;
68763;SDS011;55754;52.038;5.566;2022-10-31T11:18:27;25.65;;;12.02;;
68763;SDS011;55754;52.038;5.566;2022-10-31T11:20:57;22.30;;;11.32;;
68763;SDS011;55754;52.038;5.566;2022-10-31T11:23:25;23.50;;;12.88;;
68763;SDS011;55754;52.038;5.566;2022-10-31T11:25:56;28.77;;;12.33;;
68763;SDS011;55754;52.038;5.566;2022-10-31T11:28:23;26.42;;;12.40;;
68763;SDS011;55754;52.038;5.566;2022-10-31T11:30:53;22.88;;;12.23;;
68763;SDS011;55754;52.038;5.566;2022-10-31T11:35:52;27.33;;;13.13;;
68763;SDS011;55754;52.038;5.566;2022-10-31T11:38:20;28.37;;;13.63;;
68763;SDS011;55754;52.038;5.566;2022-10-31T11:40:52;33.55;;;14.55;;
68763;SDS011;55754;52.038;5.566;2022-10-31T11:43:23;30.83;;;13.55;;
68763;SDS011;55754;52.038;5.566;2022-10-31T11:45:49;27.00;;;13.90;;
68763;SDS011;55754;52.038;5.566;2022-10-31T11:48:24;31.02;;;15.15;;
68763;SDS011;55754;52.038;5.566;2022-10-31T11:50:56;34.93;;;14.77;;
68763;SDS011;55754;52.038;5.566;2022-10-31T11:53:27;33.40;;;14.75;;
68763;SDS011;55754;52.038;5.566;2022-10-31T11:58:30;36.33;;;15.77;;
68763;SDS011;55754;52.038;5.566;2022-10-31T12:00:56;35.20;;;15.97;;
68763;SDS011;55754;52.038;5.566;2022-10-31T12:06:01;35.73;;;15.97;;
68763;SDS011;55754;52.038;5.566;2022-10-31T12:08:31;35.83;;;16.27;;
68763;SDS011;55754;52.038;5.566;2022-10-31T12:19:29;39.30;;;17.00;;
68763;SDS011;55754;52.038;5.566;2022-10-31T12:25:18;33.88;;;17.50;;
68763;SDS011;55754;52.038;5.566;2022-10-31T12:27:59;34.15;;;15.98;;
68763;SDS011;55754;52.038;5.566;2022-10-31T12:44:35;39.78;;;18.25;;
68763;SDS011;55754;52.038;5.566;2022-10-31T12:52:35;32.90;;;16.00;;
68763;SDS011;55754;52.038;5.566;2022-10-31T12:58:16;34.78;;;16.40;;
68763;SDS011;55754;52.038;5.566;2022-10-31T13:00:48;36.00;;;15.90;;
68763;SDS011;55754;52.038;5.566;2022-10-31T13:03:30;35.63;;;15.35;;
68763;SDS011;55754;52.038;5.566;2022-10-31T13:06:06;33.20;;;16.05;;
68763;SDS011;55754;52.038;5.566;2022-10-31T13:08:42;40.70;;;16.23;;
68763;SDS011;55754;52.038;5.566;2022-10-31T13:11:16;33.78;;;15.98;;
68763;SDS011;55754;52.038;5.566;2022-10-31T13:16:43;32.53;;;15.13;;
68763;SDS011;55754;52.038;5.566;2022-10-31T13:19:17;34.22;;;16.25;;
68763;SDS011;55754;52.038;5.566;2022-10-31T13:24:34;32.47;;;14.63;;
68763;SDS011;55754;52.038;5.566;2022-10-31T13:27:11;37.63;;;16.07;;
68763;SDS011;55754;52.038;5.566;2022-10-31T13:29:46;35.03;;;15.85;;
68763;SDS011;55754;52.038;5.566;2022-10-31T13:32:13;31.48;;;15.35;;
68763;SDS011;55754;52.038;5.566;2022-10-31T13:34:39;32.23;;;15.40;;
68763;SDS011;55754;52.038;5.566;2022-10-31T13:39:52;32.67;;;15.13;;
68763;SDS011;55754;52.038;5.566;2022-10-31T13:45:18;32.92;;;15.80;;
68763;SDS011;55754;52.038;5.566;2022-10-31T13:47:55;36.50;;;16.03;;
68763;SDS011;55754;52.038;5.566;2022-10-31T13:50:28;32.60;;;15.50;;
68763;SDS011;55754;52.038;5.566;2022-10-31T13:58:33;29.53;;;14.77;;
68763;SDS011;55754;52.038;5.566;2022-10-31T14:03:42;34.53;;;14.55;;
68763;SDS011;55754;52.038;5.566;2022-10-31T14:06:13;33.40;;;15.10;;
68763;SDS011;55754;52.038;5.566;2022-10-31T14:08:41;36.85;;;14.88;;
68763;SDS011;55754;52.038;5.566;2022-10-31T14:11:22;31.08;;;14.02;;
68763;SDS011;55754;52.038;5.566;2022-10-31T14:13:52;32.60;;;14.65;;
68763;SDS011;55754;52.038;5.566;2022-10-31T14:16:22;32.10;;;14.85;;
68763;SDS011;55754;52.038;5.566;2022-10-31T14:18:57;32.77;;;13.97;;
68763;SDS011;55754;52.038;5.566;2022-10-31T14:21:45;29.92;;;14.57;;
68763;SDS011;55754;52.038;5.566;2022-10-31T14:24:15;31.75;;;14.77;;
68763;SDS011;55754;52.038;5.566;2022-10-31T14:26:57;32.67;;;14.27;;
68763;SDS011;55754;52.038;5.566;2022-10-31T14:29:43;32.28;;;15.30;;
68763;SDS011;55754;52.038;5.566;2022-10-31T14:34:57;27.42;;;13.55;;
68763;SDS011;55754;52.038;5.566;2022-10-31T14:40:23;33.53;;;14.17;;
68763;SDS011;55754;52.038;5.566;2022-10-31T14:46:12;30.02;;;13.18;;
68763;SDS011;55754;52.038;5.566;2022-10-31T14:51:31;31.00;;;13.48;;
68763;SDS011;55754;52.038;5.566;2022-10-31T14:54:02;30.83;;;13.57;;
68763;SDS011;55754;52.038;5.566;2022-10-31T14:56:32;33.72;;;14.05;;
68763;SDS011;55754;52.038;5.566;2022-10-31T14:59:00;28.48;;;13.65;;
68763;SDS011;55754;52.038;5.566;2022-10-31T15:01:36;32.30;;;13.30;;
68763;SDS011;55754;52.038;5.566;2022-10-31T15:04:09;31.40;;;13.30;;
68763;SDS011;55754;52.038;5.566;2022-10-31T15:06:46;35.13;;;13.53;;
68763;SDS011;55754;52.038;5.566;2022-10-31T15:09:29;28.23;;;13.95;;
68763;SDS011;55754;52.038;5.566;2022-10-31T15:12:00;34.35;;;13.52;;
68763;SDS011;55754;52.038;5.566;2022-10-31T15:14:41;31.17;;;14.05;;
68763;SDS011;55754;52.038;5.566;2022-10-31T15:17:08;31.30;;;13.90;;
68763;SDS011;55754;52.038;5.566;2022-10-31T15:19:36;34.10;;;13.70;;
68763;SDS011;55754;52.038;5.566;2022-10-31T15:22:02;31.55;;;14.02;;
68763;SDS011;55754;52.038;5.566;2022-10-31T15:24:35;39.33;;;13.70;;
68763;SDS011;55754;52.038;5.566;2022-10-31T15:27:03;35.63;;;14.10;;
68763;SDS011;55754;52.038;5.566;2022-10-31T15:29:29;26.85;;;13.57;;
68763;SDS011;55754;52.038;5.566;2022-10-31T15:31:56;31.67;;;14.60;;
68763;SDS011;55754;52.038;5.566;2022-10-31T15:34:39;30.83;;;13.75;;
68763;SDS011;55754;52.038;5.566;2022-10-31T15:37:10;31.08;;;13.95;;
68763;SDS011;55754;52.038;5.566;2022-10-31T15:39:38;35.88;;;14.63;;
68763;SDS011;55754;52.038;5.566;2022-10-31T15:42:04;31.33;;;14.20;;
68763;SDS011;55754;52.038;5.566;2022-10-31T15:44:40;30.47;;;13.87;;
68763;SDS011;55754;52.038;5.566;2022-10-31T15:47:13;36.65;;;13.38;;
68763;SDS011;55754;52.038;5.566;2022-10-31T15:49:42;30.30;;;13.73;;
68763;SDS011;55754;52.038;5.566;2022-10-31T15:52:17;31.73;;;13.70;;
68763;SDS011;55754;52.038;5.566;2022-10-31T15:54:58;30.17;;;13.30;;
68763;SDS011;55754;52.038;5.566;2022-10-31T15:57:29;33.93;;;13.47;;
68763;SDS011;55754;52.038;5.566;2022-10-31T15:59:56;28.20;;;13.07;;
68763;SDS011;55754;52.038;5.566;2022-10-31T16:02:22;34.80;;;13.82;;
68763;SDS011;55754;52.038;5.566;2022-10-31T16:04:52;32.83;;;14.05;;
68763;SDS011;55754;52.038;5.566;2022-10-31T16:07:20;31.53;;;14.00;;
68763;SDS011;55754;52.038;5.566;2022-10-31T16:09:50;30.85;;;14.05;;
68763;SDS011;55754;52.038;5.566;2022-10-31T16:12:21;35.22;;;13.82;;
68763;SDS011;55754;52.038;5.566;2022-10-31T16:14:50;31.88;;;14.20;;
68763;SDS011;55754;52.038;5.566;2022-10-31T16:17:21;30.40;;;14.15;;
68763;SDS011;55754;52.038;5.566;2022-10-31T16:20:02;31.43;;;13.60;;
68763;SDS011;55754;52.038;5.566;2022-10-31T16:22:31;35.85;;;14.45;;
68763;SDS011;55754;52.038;5.566;2022-10-31T16:25:04;29.70;;;13.30;;
68763;SDS011;55754;52.038;5.566;2022-10-31T16:27:46;35.67;;;13.90;;
68763;SDS011;55754;52.038;5.566;2022-10-31T16:30:30;33.00;;;13.80;;
68763;SDS011;55754;52.038;5.566;2022-10-31T16:33:02;30.03;;;13.93;;
68763;SDS011;55754;52.038;5.566;2022-10-31T16:35:36;32.45;;;13.73;;
68763;SDS011;55754;52.038;5.566;2022-10-31T16:38:03;31.50;;;14.65;;
68763;SDS011;55754;52.038;5.566;2022-10-31T16:40:29;31.65;;;14.30;;
68763;SDS011;55754;52.038;5.566;2022-10-31T16:42:56;29.48;;;14.35;;
68763;SDS011;55754;52.038;5.566;2022-10-31T16:45:29;30.83;;;14.07;;
68763;SDS011;55754;52.038;5.566;2022-10-31T16:48:02;33.08;;;15.15;;
68763;SDS011;55754;52.038;5.566;2022-10-31T16:50:34;27.10;;;14.05;;
68763;SDS011;55754;52.038;5.566;2022-10-31T16:53:01;34.50;;;14.50;;
68763;SDS011;55754;52.038;5.566;2022-10-31T16:55:27;33.57;;;14.13;;
68763;SDS011;55754;52.038;5.566;2022-10-31T16:57:54;30.67;;;14.88;;
68763;SDS011;55754;52.038;5.566;2022-10-31T17:00:23;40.50;;;15.13;;
68763;SDS011;55754;52.038;5.566;2022-10-31T17:02:52;30.08;;;14.70;;